Modling, Austria
Current Conditions -  °F | °C
As of 10:50 AM on Tuesday 21 Oct 2014 (Local Time) from LOWW Reporting Station
Broken Clouds Broken Clouds  
Wind Chill: 59°   Ceiling: 5000
Heat Index: 59°   Visibility: 6mi
Dew Point: 54°   Wind: 12mph
Humidity: 82%   Direction: 280°W
Pressure: 29.91"   Gusts: NA
Location:  48.09°N, 16.28°E
Report Text: LOWW 210850Z 28010KT 9999 FEW015 SCT030 BKN050 15/12 Q1013 NOSIG
Loading
Personal Weather Stations






























Interactive Weather Map
Tropical Storm Tracking
New forecast layout! Learn more

10-Day Weather Forecast

Advertisements
Track Severe Weather on mobile